LiveATC.Net - Listen to live air traffic control over the Internet! Contact LiveATC.net for advertising information


ICAO: UKBB  IATA: KBP   Airport: Boryspil International Airport
City: Kyiv
Country: Ukraine   Continent: Europe
UKBB METAR Weather: UKBB 260800Z 03004MPS 9999 OVC014 M05/M08 Q1030 88810550 NOSIG
UKBB Flight Activity (FlightAware)
UKBB Del/Gnd/Twr/Center
Feed Status: DOWN
Last heard on: 2014-05-30 11:02:03 (179 days 21 hours 49 minutes ago)
UKBB Del/Gnd/Twr/Center Audio Archives
FacilityFrequency
Kyiv Center127.725
Kyiv Clearance Delivery130.275
Kyiv Ground118.050
Kyiv Tower119.300
Kyiv Tower119.650


NOTICE

Unauthorized use prohibited. See LiveATC.net Terms of Service


Find LiveATC Audio Streams


Airport/ARTCC Code

Frequency
(e.g., 124.400, 128.75)
Site-wide search

Browse LiveATC Feeds
LiveATC Coverage Map
Top 50 LiveATC Feeds
Bad Weather Areas

LiveATC FAQ
Offer a LiveATC Feed
Contact LiveATC.net
Press Inquiries

LiveATC on iPhone
LiveATC on Android

LiveATC Mobile
(Mobile browser)

ATC Audio Archives
Interesting Recordings

LiveATC Forums


Home Page
About LiveATC.net
Make a Donation
LiveATC Bookstore

Terms of Use
Privacy Policy

ATC/Radar Sites
U.S. ARTCC Freqs
Canadian Air Freqs

AIRMETs/SIGMETs

FAA Airport Status
Nat'l Airspace Status
Arrival Demand Charts


Server Software By:
Icecast.org
Liquidsoap

Please make a donation to help us keep growing!